Time;durP1;ratioP1;P1;durP2;ratioP2;P2;SDS_P1;SDS_P2;PMS_P1;PMS_P2;Temp;Humidity;BMP_temperature;BMP_pressure;BME280_temperature;BME280_humidity;BME280_pressure;Samples;Min_cycle;Max_cycle;Signal;HPM_P1;HPM_P2
2023/01/11 00:00:22;;;;;;;3.37;1.47;;;;;;;;;;6310675;28;20296;-86
2023/01/11 00:03:27;;;;;;;3.33;1.50;;;;;;;;;;6311648;28;20286;-86
2023/01/11 00:06:33;;;;;;;1.77;1.60;;;;;;;;;;6311663;28;20324;-86
2023/01/11 00:09:38;;;;;;;5.03;2.00;;;;;;;;;;6311928;28;20498;-86
2023/01/11 00:12:44;;;;;;;1.50;1.40;;;;;;;;;;6309022;28;20545;-86
2023/01/11 00:15:49;;;;;;;3.03;1.70;;;;;;;;;;6285181;28;20296;-87
2023/01/11 00:18:55;;;;;;;3.70;1.33;;;;;;;;;;6286202;28;20296;-87
2023/01/11 00:22:01;;;;;;;5.20;1.67;;;;;;;;;;6285859;28;20252;-86
2023/01/11 00:25:07;;;;;;;2.10;1.70;;;;;;;;;;6285174;28;20295;-85
2023/01/11 00:28:13;;;;;;;2.00;1.60;;;;;;;;;;6285468;28;20301;-87
2023/01/11 00:31:19;;;;;;;1.77;1.40;;;;;;;;;;6286495;28;20316;-87
2023/01/11 00:34:25;;;;;;;5.83;1.73;;;;;;;;;;6285929;28;20296;-87
2023/01/11 00:37:31;;;;;;;2.03;1.93;;;;;;;;;;6268570;28;20273;-86
2023/01/11 00:40:36;;;;;;;2.90;1.70;;;;;;;;;;6284795;28;20291;-86
2023/01/11 00:50:28;;;;;;;4.83;1.70;;;;;;;;;;6285048;28;20471;-87
2023/01/11 00:53:35;;;;;;;3.03;1.40;;;;;;;;;;6284949;28;20294;-87
2023/01/11 00:56:41;;;;;;;1.90;1.50;;;;;;;;;;6286535;28;20293;-85
2023/01/11 00:59:46;;;;;;;2.13;1.70;;;;;;;;;;6286005;28;20305;-86
2023/01/11 01:02:51;;;;;;;4.43;1.80;;;;;;;;;;6283785;28;20273;-85
2023/01/11 01:05:56;;;;;;;5.97;1.73;;;;;;;;;;6285628;28;20276;-86
2023/01/11 01:09:03;;;;;;;4.90;1.80;;;;;;;;;;6284793;28;20302;-85
2023/01/11 01:14:24;;;;;;;1.70;1.63;;;;;;;;;;6306641;28;20270;-87
2023/01/11 01:15:36;;;;;;;2.80;2.00;;;;;;;;;;6310609;28;20295;-87
2023/01/11 01:18:41;;;;;;;5.90;2.00;;;;;;;;;;6309093;28;20292;-87
2023/01/11 01:21:47;;;;;;;2.33;1.87;;;;;;;;;;6310574;28;20311;-87
2023/01/11 01:24:53;;;;;;;1.80;1.67;;;;;;;;;;6309635;28;20306;-86
2023/01/11 01:27:58;;;;;;;1.80;1.40;;;;;;;;;;6308579;28;20264;-86
2023/01/11 01:31:03;;;;;;;1.33;1.27;;;;;;;;;;6310898;28;20291;-86
2023/01/11 01:34:09;;;;;;;6.07;2.07;;;;;;;;;;6311556;28;20302;-85
2023/01/11 01:37:16;;;;;;;3.90;2.00;;;;;;;;;;6311017;28;20288;-85
2023/01/11 01:40:23;;;;;;;3.27;2.10;;;;;;;;;;6309746;28;20466;-86
2023/01/11 01:43:44;;;;;;;5.07;2.47;;;;;;;;;;6315138;28;20291;-86
2023/01/11 01:46:51;;;;;;;5.43;2.57;;;;;;;;;;6314281;28;20429;-85
2023/01/11 01:49:58;;;;;;;6.50;2.70;;;;;;;;;;6313186;28;20583;-86
2023/01/11 01:53:06;;;;;;;5.13;2.93;;;;;;;;;;6314156;28;20264;-85
2023/01/11 01:56:18;;;;;;;6.23;2.80;;;;;;;;;;6313838;28;20277;-86
2023/01/11 01:59:24;;;;;;;5.70;2.80;;;;;;;;;;6314239;28;20292;-86
2023/01/11 02:02:29;;;;;;;4.73;2.83;;;;;;;;;;6315231;28;20267;-84
2023/01/11 02:05:35;;;;;;;4.43;3.23;;;;;;;;;;6313244;28;20300;-86
2023/01/11 02:08:43;;;;;;;5.73;3.40;;;;;;;;;;6313065;28;20595;-86
2023/01/11 02:11:50;;;;;;;7.17;3.57;;;;;;;;;;6314802;28;20283;-85
2023/01/11 02:14:55;;;;;;;4.17;2.77;;;;;;;;;;6314257;28;20601;-87
2023/01/11 02:18:01;;;;;;;5.77;2.57;;;;;;;;;;6312619;28;20544;-87
2023/01/11 02:21:19;;;;;;;3.43;2.30;;;;;;;;;;6313369;28;20577;-86
2023/01/11 02:24:58;;;;;;;4.50;2.40;;;;;;;;;;6312576;28;20307;-86
2023/01/11 02:28:09;;;;;;;4.30;2.40;;;;;;;;;;6284323;28;20555;-86
2023/01/11 02:31:20;;;;;;;6.57;2.80;;;;;;;;;;6313951;28;20284;-86
2023/01/11 02:34:33;;;;;;;3.77;2.60;;;;;;;;;;6312568;28;20309;-86
2023/01/11 02:37:43;;;;;;;4.47;2.70;;;;;;;;;;6314563;28;20447;-86
2023/01/11 02:40:53;;;;;;;3.90;2.50;;;;;;;;;;6312711;28;20487;-86
2023/01/11 02:47:32;;;;;;;6.90;3.03;;;;;;;;;;6314230;28;20581;-87
2023/01/11 02:50:42;;;;;;;5.93;3.13;;;;;;;;;;6312698;28;20391;-86
2023/01/11 02:53:51;;;;;;;5.80;3.30;;;;;;;;;;6311965;28;20292;-86
2023/01/11 02:56:59;;;;;;;4.00;3.03;;;;;;;;;;6312572;28;20270;-87
2023/01/11 03:00:08;;;;;;;6.20;3.50;;;;;;;;;;6312307;28;20289;-87
2023/01/11 03:03:16;;;;;;;4.60;2.30;;;;;;;;;;6312384;28;20295;-87
2023/01/11 03:06:22;;;;;;;6.33;2.93;;;;;;;;;;6312550;28;20270;-87
2023/01/11 03:09:33;;;;;;;5.80;3.07;;;;;;;;;;6313491;28;20310;-87
2023/01/11 03:12:54;;;;;;;8.67;3.30;;;;;;;;;;6313445;28;20296;-86
2023/01/11 03:16:13;;;;;;;6.63;3.27;;;;;;;;;;6311371;28;20272;-86
2023/01/11 03:19:26;;;;;;;5.73;2.90;;;;;;;;;;6311555;28;20304;-87
2023/01/11 03:22:35;;;;;;;8.47;3.40;;;;;;;;;;6313194;28;20292;-84
2023/01/11 03:25:47;;;;;;;5.97;3.00;;;;;;;;;;6312382;28;20299;-85
2023/01/11 03:28:57;;;;;;;6.07;3.17;;;;;;;;;;6312701;28;20621;-85
2023/01/11 03:32:13;;;;;;;9.93;3.50;;;;;;;;;;6311847;28;20276;-85
2023/01/11 03:35:23;;;;;;;10.97;3.47;;;;;;;;;;6311638;28;20296;-85
2023/01/11 03:38:32;;;;;;;8.07;3.47;;;;;;;;;;6315368;28;20288;-86
2023/01/11 03:41:40;;;;;;;10.63;3.63;;;;;;;;;;6315924;28;20276;-84
2023/01/11 03:44:49;;;;;;;11.93;2.90;;;;;;;;;;6310609;28;20301;-84
2023/01/11 03:47:56;;;;;;;5.37;3.13;;;;;;;;;;6312086;28;20268;-85
2023/01/11 03:51:02;;;;;;;7.50;3.33;;;;;;;;;;6310881;28;20296;-85
2023/01/11 03:54:10;;;;;;;8.53;3.30;;;;;;;;;;6311483;28;20288;-85
2023/01/11 03:57:17;;;;;;;5.83;3.00;;;;;;;;;;6315586;28;20275;-84
2023/01/11 04:00:23;;;;;;;2.87;2.50;;;;;;;;;;6326879;28;20284;-83
2023/01/11 04:03:30;;;;;;;3.83;2.30;;;;;;;;;;6325502;28;20239;-84
2023/01/11 04:06:37;;;;;;;9.37;2.50;;;;;;;;;;6322968;28;20240;-85
2023/01/11 04:09:42;;;;;;;12.80;2.37;;;;;;;;;;6312203;28;20297;-85
2023/01/11 04:12:48;;;;;;;6.77;2.80;;;;;;;;;;6310963;28;20580;-85
2023/01/11 04:15:53;;;;;;;3.53;2.37;;;;;;;;;;6311232;28;20326;-85
2023/01/11 04:19:01;;;;;;;7.73;3.13;;;;;;;;;;6309885;28;20429;-85
2023/01/11 04:22:06;;;;;;;4.37;2.80;;;;;;;;;;6310505;28;20266;-85
2023/01/11 04:25:12;;;;;;;3.87;2.70;;;;;;;;;;6311006;28;20310;-85
2023/01/11 04:28:18;;;;;;;8.13;2.57;;;;;;;;;;6310676;28;20293;-85
2023/01/11 04:31:23;;;;;;;6.73;2.40;;;;;;;;;;6310914;28;20267;-85
2023/01/11 04:34:30;;;;;;;6.03;2.43;;;;;;;;;;6309928;28;20299;-85
2023/01/11 04:37:35;;;;;;;5.63;2.50;;;;;;;;;;6309549;28;20259;-85
2023/01/11 04:40:40;;;;;;;3.10;2.27;;;;;;;;;;6293328;28;20315;-86
2023/01/11 04:43:45;;;;;;;5.10;2.37;;;;;;;;;;6309396;28;20300;-86
2023/01/11 04:46:50;;;;;;;5.77;2.33;;;;;;;;;;6310184;28;20271;-86
2023/01/11 04:49:56;;;;;;;8.27;3.23;;;;;;;;;;6309427;28;20292;-86
2023/01/11 04:53:02;;;;;;;9.03;3.67;;;;;;;;;;6309062;28;20312;-85
2023/01/11 04:56:08;;;;;;;6.40;3.80;;;;;;;;;;6310291;28;20276;-85
2023/01/11 04:59:14;;;;;;;12.73;4.10;;;;;;;;;;6308886;28;20306;-85
2023/01/11 05:02:19;;;;;;;13.50;4.07;;;;;;;;;;6310673;28;20277;-84
2023/01/11 05:05:26;;;;;;;4.00;3.27;;;;;;;;;;6310366;28;20600;-84
2023/01/11 05:08:32;;;;;;;5.80;3.17;;;;;;;;;;6309162;28;20291;-85
2023/01/11 05:11:37;;;;;;;6.03;3.10;;;;;;;;;;6309765;28;20276;-86
2023/01/11 05:14:43;;;;;;;5.40;2.90;;;;;;;;;;6309545;28;20355;-85
2023/01/11 05:17:48;;;;;;;8.67;3.90;;;;;;;;;;6309488;28;20274;-86
2023/01/11 05:20:54;;;;;;;11.73;3.07;;;;;;;;;;6310685;28;20279;-86
2023/01/11 05:24:01;;;;;;;9.40;4.23;;;;;;;;;;6309950;28;20308;-86
2023/01/11 05:27:06;;;;;;;8.03;3.80;;;;;;;;;;6310688;28;20470;-87
2023/01/11 05:30:14;;;;;;;12.37;3.73;;;;;;;;;;6310160;28;20480;-86
2023/01/11 05:33:23;;;;;;;10.00;3.60;;;;;;;;;;6293250;28;20301;-86
2023/01/11 05:36:33;;;;;;;9.93;3.90;;;;;;;;;;6310345;28;20272;-85
2023/01/11 05:39:39;;;;;;;10.37;3.70;;;;;;;;;;6309527;28;20601;-87
2023/01/11 05:42:47;;;;;;;9.00;3.57;;;;;;;;;;6311985;28;20272;-87
2023/01/11 05:45:51;;;;;;;8.33;3.17;;;;;;;;;;6310984;28;20275;-88
2023/01/11 05:48:57;;;;;;;6.60;3.07;;;;;;;;;;6308595;28;20292;-88
2023/01/11 05:52:05;;;;;;;5.60;3.37;;;;;;;;;;6292490;28;20272;-88
2023/01/11 05:55:12;;;;;;;3.47;2.80;;;;;;;;;;6309526;28;20296;-87
2023/01/11 05:58:19;;;;;;;8.87;3.20;;;;;;;;;;6293334;28;20296;-87
2023/01/11 06:01:25;;;;;;;6.00;2.27;;;;;;;;;;6310573;28;20272;-87
2023/01/11 06:04:30;;;;;;;12.33;3.00;;;;;;;;;;6311192;28;20628;-85
2023/01/11 06:07:38;;;;;;;7.70;3.23;;;;;;;;;;6322742;28;20292;-86
2023/01/11 06:10:51;;;;;;;11.33;3.03;;;;;;;;;;6346848;28;20277;-86
2023/01/11 06:13:56;;;;;;;6.57;3.10;;;;;;;;;;6325665;28;20301;-85
2023/01/11 06:17:03;;;;;;;8.53;3.00;;;;;;;;;;6347533;28;20257;-87
2023/01/11 06:20:13;;;;;;;10.90;3.30;;;;;;;;;;6338492;28;20311;-86
2023/01/11 06:23:20;;;;;;;8.40;3.43;;;;;;;;;;6316030;28;20298;-86
2023/01/11 06:26:26;;;;;;;7.73;2.40;;;;;;;;;;6334987;28;20268;-86
2023/01/11 06:29:31;;;;;;;8.43;3.47;;;;;;;;;;6320629;28;20292;-85
2023/01/11 06:32:38;;;;;;;3.30;3.00;;;;;;;;;;6313913;28;20295;-88
2023/01/11 06:35:44;;;;;;;8.17;3.13;;;;;;;;;;6338561;28;20305;-86
2023/01/11 06:38:52;;;;;;;9.97;3.77;;;;;;;;;;6320883;28;20291;-88
2023/01/11 06:41:58;;;;;;;9.47;3.57;;;;;;;;;;6321434;28;20271;-87
2023/01/11 06:45:04;;;;;;;7.63;3.70;;;;;;;;;;6320736;28;20302;-87
2023/01/11 06:48:12;;;;;;;11.37;3.27;;;;;;;;;;6321284;28;20451;-87
2023/01/11 06:51:17;;;;;;;5.73;3.13;;;;;;;;;;6338637;28;20273;-87
2023/01/11 06:54:24;;;;;;;8.37;3.00;;;;;;;;;;6338409;28;20308;-87
2023/01/11 06:57:30;;;;;;;5.90;2.93;;;;;;;;;;6320678;28;20277;-87
2023/01/11 07:00:35;;;;;;;14.10;3.57;;;;;;;;;;6320823;28;20300;-87
2023/01/11 07:03:44;;;;;;;9.17;3.10;;;;;;;;;;6338725;28;20296;-85
2023/01/11 07:06:53;;;;;;;6.90;3.07;;;;;;;;;;6321677;28;20294;-87
2023/01/11 07:10:17;;;;;;;12.20;3.67;;;;;;;;;;6320430;28;20291;-87
2023/01/11 07:13:24;;;;;;;8.43;3.43;;;;;;;;;;6337867;28;20476;-88
2023/01/11 07:16:31;;;;;;;10.03;3.90;;;;;;;;;;6304812;28;20321;-88
2023/01/11 07:19:37;;;;;;;12.37;3.83;;;;;;;;;;6339606;28;20478;-88
2023/01/11 07:22:43;;;;;;;6.83;4.70;;;;;;;;;;6321802;28;20462;-87
2023/01/11 07:25:50;;;;;;;2.97;2.67;;;;;;;;;;6338415;28;20284;-88
2023/01/11 07:28:56;;;;;;;7.77;3.80;;;;;;;;;;6337216;28;20323;-88
2023/01/11 07:32:03;;;;;;;8.83;3.13;;;;;;;;;;6321598;28;20284;-88
2023/01/11 07:35:11;;;;;;;7.10;3.73;;;;;;;;;;6324206;28;20308;-86
2023/01/11 07:38:17;;;;;;;7.10;2.63;;;;;;;;;;6322581;28;20288;-86
2023/01/11 07:44:49;;;;;;;10.10;3.57;;;;;;;;;;6314006;28;20296;-87
2023/01/11 07:47:54;;;;;;;4.87;3.60;;;;;;;;;;6319828;28;20277;-86
2023/01/11 07:51:03;;;;;;;7.20;3.37;;;;;;;;;;6337885;28;20268;-86
2023/01/11 07:54:08;;;;;;;12.30;4.23;;;;;;;;;;6337188;28;20299;-86
2023/01/11 07:57:15;;;;;;;7.97;3.70;;;;;;;;;;6337737;28;20386;-86
2023/01/11 08:00:21;;;;;;;6.43;3.60;;;;;;;;;;6337202;28;20292;-85
2023/01/11 08:03:29;;;;;;;3.27;2.97;;;;;;;;;;6319428;28;20277;-85
2023/01/11 08:06:35;;;;;;;4.93;3.20;;;;;;;;;;6337250;28;20271;-86
2023/01/11 08:09:39;;;;;;;5.87;2.73;;;;;;;;;;6318890;28;20366;-85
2023/01/11 08:16:11;;;;;;;4.70;2.10;;;;;;;;;;6336829;28;20483;-87
2023/01/11 08:19:17;;;;;;;5.73;2.87;;;;;;;;;;6336614;28;20489;-87
2023/01/11 08:22:23;;;;;;;3.23;2.20;;;;;;;;;;6319038;28;20285;-87
2023/01/11 08:25:29;;;;;;;2.43;2.00;;;;;;;;;;6318930;28;20484;-86
2023/01/11 08:28:36;;;;;;;3.00;2.30;;;;;;;;;;6302514;28;20295;-87
2023/01/11 08:31:44;;;;;;;2.03;1.93;;;;;;;;;;6318544;28;20268;-87
2023/01/11 08:34:51;;;;;;;3.93;2.00;;;;;;;;;;6323259;28;20306;-86
2023/01/11 08:37:56;;;;;;;3.70;2.13;;;;;;;;;;6334865;28;20232;-85
2023/01/11 08:41:01;;;;;;;1.87;1.47;;;;;;;;;;6335058;28;20287;-86
2023/01/11 08:44:09;;;;;;;4.03;1.60;;;;;;;;;;6352534;28;20255;-86
2023/01/11 08:47:15;;;;;;;2.10;1.20;;;;;;;;;;6335796;28;20263;-86
2023/01/11 08:50:22;;;;;;;3.50;1.60;;;;;;;;;;6317051;28;20252;-86
2023/01/11 08:53:27;;;;;;;3.43;1.57;;;;;;;;;;6323251;28;20291;-85
2023/01/11 08:56:32;;;;;;;3.40;1.53;;;;;;;;;;6323266;28;20297;-85
2023/01/11 08:59:38;;;;;;;4.70;1.47;;;;;;;;;;6341629;28;20295;-86
2023/01/11 09:02:45;;;;;;;2.47;1.37;;;;;;;;;;6323145;28;20260;-84
2023/01/11 09:05:50;;;;;;;2.07;1.90;;;;;;;;;;6323943;28;20272;-85
2023/01/11 09:08:56;;;;;;;1.87;1.77;;;;;;;;;;6320749;28;20320;-84
2023/01/11 09:12:05;;;;;;;3.07;2.13;;;;;;;;;;6317972;28;20269;-86
2023/01/11 09:15:14;;;;;;;1.87;1.73;;;;;;;;;;6335249;28;20293;-86
2023/01/11 09:18:19;;;;;;;6.97;1.90;;;;;;;;;;6316969;28;20289;-86
2023/01/11 09:21:25;;;;;;;1.90;1.20;;;;;;;;;;6335314;28;20313;-84
2023/01/11 09:24:31;;;;;;;3.17;1.63;;;;;;;;;;6307103;28;20302;-85
2023/01/11 09:27:37;;;;;;;4.60;1.80;;;;;;;;;;6318154;28;20408;-80
2023/01/11 09:30:45;;;;;;;2.63;2.00;;;;;;;;;;6317398;28;20305;-83
2023/01/11 09:33:51;;;;;;;2.93;1.60;;;;;;;;;;6301042;28;20293;-84
2023/01/11 09:37:03;;;;;;;3.37;1.50;;;;;;;;;;6317219;28;20359;-86
2023/01/11 09:40:16;;;;;;;1.47;1.37;;;;;;;;;;6315943;28;20292;-87
2023/01/11 09:43:23;;;;;;;3.73;2.23;;;;;;;;;;6317693;28;20285;-85
2023/01/11 09:46:32;;;;;;;3.07;1.80;;;;;;;;;;6318023;28;20289;-86
2023/01/11 09:49:40;;;;;;;3.70;1.90;;;;;;;;;;6300938;28;20463;-85
2023/01/11 09:52:50;;;;;;;5.50;2.30;;;;;;;;;;6324330;28;20256;-83
2023/01/11 09:55:58;;;;;;;2.53;1.97;;;;;;;;;;6351159;28;20331;-86
2023/01/11 09:59:13;;;;;;;1.70;1.63;;;;;;;;;;6351356;28;20262;-83
2023/01/11 10:02:30;;;;;;;5.17;2.13;;;;;;;;;;6342963;28;20451;-85
2023/01/11 10:05:52;;;;;;;4.57;1.97;;;;;;;;;;6341155;28;20296;-85
2023/01/11 10:09:19;;;;;;;8.70;2.20;;;;;;;;;;6339369;28;20308;-85
2023/01/11 10:12:51;;;;;;;3.83;1.80;;;;;;;;;;6289533;28;20321;-85
2023/01/11 10:16:27;;;;;;;4.60;2.23;;;;;;;;;;6288382;28;20292;-86
2023/01/11 10:20:00;;;;;;;2.73;2.00;;;;;;;;;;6290597;28;20288;-86
2023/01/11 10:23:13;;;;;;;4.67;2.03;;;;;;;;;;6255192;28;20304;-85
2023/01/11 10:26:27;;;;;;;7.80;2.47;;;;;;;;;;6255369;28;20508;-85
2023/01/11 10:29:48;;;;;;;2.07;1.90;;;;;;;;;;6254676;28;20294;-86
2023/01/11 10:33:05;;;;;;;2.80;2.23;;;;;;;;;;6271112;28;20427;-86
2023/01/11 10:36:33;;;;;;;3.57;2.33;;;;;;;;;;6289247;28;20285;-86
2023/01/11 10:40:02;;;;;;;4.03;2.00;;;;;;;;;;6288554;28;20292;-88
2023/01/11 10:43:15;;;;;;;3.63;2.90;;;;;;;;;;6287209;28;20413;-87
2023/01/11 10:46:23;;;;;;;6.73;2.93;;;;;;;;;;6271809;28;20268;-86
2023/01/11 10:49:36;;;;;;;6.23;2.93;;;;;;;;;;6287960;28;20303;-86
2023/01/11 10:52:50;;;;;;;3.00;2.63;;;;;;;;;;6288351;28;20272;-87
2023/01/11 10:56:04;;;;;;;2.03;1.83;;;;;;;;;;6287937;28;20289;-87
2023/01/11 10:59:24;;;;;;;7.63;3.17;;;;;;;;;;6287709;28;20296;-86
2023/01/11 11:02:55;;;;;;;4.33;2.50;;;;;;;;;;6270703;28;20278;-86
2023/01/11 11:06:06;;;;;;;5.30;2.83;;;;;;;;;;6253343;28;20274;-86
2023/01/11 11:09:19;;;;;;;6.97;3.30;;;;;;;;;;6293370;28;20297;-86
2023/01/11 11:12:28;;;;;;;6.67;3.17;;;;;;;;;;6294895;28;20278;-87
2023/01/11 11:15:49;;;;;;;7.57;2.70;;;;;;;;;;6294634;28;20325;-84
2023/01/11 11:19:02;;;;;;;2.57;2.27;;;;;;;;;;6295979;28;20304;-85
2023/01/11 11:22:08;;;;;;;2.50;2.27;;;;;;;;;;6278747;28;20561;-86
2023/01/11 11:25:19;;;;;;;7.07;2.30;;;;;;;;;;6312597;28;20304;-87
2023/01/11 11:28:27;;;;;;;3.63;2.23;;;;;;;;;;6312319;28;20300;-86
2023/01/11 11:31:33;;;;;;;4.33;2.40;;;;;;;;;;6295684;28;20264;-86
2023/01/11 11:34:47;;;;;;;3.23;2.10;;;;;;;;;;6278470;28;20302;-86
2023/01/11 11:37:55;;;;;;;4.20;2.43;;;;;;;;;;6313043;28;20297;-86
2023/01/11 11:41:08;;;;;;;4.27;2.17;;;;;;;;;;6312723;28;20271;-86
2023/01/11 11:44:18;;;;;;;5.33;2.00;;;;;;;;;;6295062;28;20296;-85
2023/01/11 11:47:26;;;;;;;8.27;2.30;;;;;;;;;;6312673;28;20584;-85
2023/01/11 11:50:36;;;;;;;4.70;2.00;;;;;;;;;;6311791;28;20301;-85
2023/01/11 11:53:54;;;;;;;4.63;2.37;;;;;;;;;;6311744;28;20616;-85
2023/01/11 11:57:14;;;;;;;3.73;2.20;;;;;;;;;;6312467;28;20293;-85
2023/01/11 12:00:25;;;;;;;2.60;2.13;;;;;;;;;;6293317;28;20296;-84
2023/01/11 12:03:32;;;;;;;8.27;2.40;;;;;;;;;;6294504;28;20313;-85
2023/01/11 12:06:39;;;;;;;2.87;2.50;;;;;;;;;;6296403;28;20272;-85
2023/01/11 12:09:47;;;;;;;5.70;2.27;;;;;;;;;;6302424;28;20304;-86
2023/01/11 12:12:57;;;;;;;2.90;2.17;;;;;;;;;;6318844;28;20272;-84
2023/01/11 12:16:22;;;;;;;5.03;2.50;;;;;;;;;;6319782;28;20305;-85
2023/01/11 12:19:35;;;;;;;3.90;2.47;;;;;;;;;;6303841;28;20300;-85
2023/01/11 12:22:41;;;;;;;4.10;2.17;;;;;;;;;;6337076;28;20281;-85
2023/01/11 12:26:14;;;;;;;4.20;2.50;;;;;;;;;;6317007;28;20272;-85
2023/01/11 12:29:45;;;;;;;3.63;1.77;;;;;;;;;;6315627;28;20300;-84
2023/01/11 12:33:23;;;;;;;6.70;2.20;;;;;;;;;;6317773;28;20267;-85
2023/01/11 12:36:34;;;;;;;2.43;2.00;;;;;;;;;;6336060;28;20308;-85
2023/01/11 12:39:46;;;;;;;3.80;2.10;;;;;;;;;;6317669;28;20312;-85
2023/01/11 12:43:09;;;;;;;4.97;1.80;;;;;;;;;;6334690;28;20276;-85
2023/01/11 12:46:24;;;;;;;4.90;2.23;;;;;;;;;;6318291;28;20280;-85
2023/01/11 12:49:40;;;;;;;6.30;1.93;;;;;;;;;;6335969;28;20301;-85
2023/01/11 12:52:57;;;;;;;6.43;1.90;;;;;;;;;;6316920;28;20291;-84
2023/01/11 12:56:32;;;;;;;3.43;1.73;;;;;;;;;;6317802;28;20288;-85
2023/01/11 13:00:12;;;;;;;3.77;1.83;;;;;;;;;;6335081;28;20291;-86
2023/01/11 13:04:02;;;;;;;7.07;1.87;;;;;;;;;;6317499;28;20329;-86
2023/01/11 13:07:18;;;;;;;2.53;1.77;;;;;;;;;;6259209;28;20300;-85
2023/01/11 13:10:34;;;;;;;4.53;1.90;;;;;;;;;;6333727;28;20306;-85
2023/01/11 13:13:51;;;;;;;3.23;2.03;;;;;;;;;;6334851;28;20309;-85
2023/01/11 13:17:14;;;;;;;2.87;2.53;;;;;;;;;;6317212;28;20589;-85
2023/01/11 13:20:28;;;;;;;4.20;2.20;;;;;;;;;;6334851;28;20308;-86
2023/01/11 13:23:41;;;;;;;5.23;2.00;;;;;;;;;;6334814;28;20301;-85
2023/01/11 13:26:48;;;;;;;3.33;2.43;;;;;;;;;;6317729;28;20277;-85
2023/01/11 13:29:59;;;;;;;1.73;1.70;;;;;;;;;;6334750;28;20308;-85
2023/01/11 13:33:12;;;;;;;1.80;1.70;;;;;;;;;;6317291;28;20299;-85
2023/01/11 13:36:19;;;;;;;2.00;1.90;;;;;;;;;;6318791;28;20431;-85
2023/01/11 13:39:36;;;;;;;5.37;1.70;;;;;;;;;;6321793;28;20296;-85
2023/01/11 13:42:45;;;;;;;3.53;2.10;;;;;;;;;;6322168;28;20284;-86
2023/01/11 13:45:54;;;;;;;6.00;2.30;;;;;;;;;;6321333;28;20276;-85
2023/01/11 13:49:06;;;;;;;4.30;1.80;;;;;;;;;;6339638;28;20487;-85
2023/01/11 13:52:14;;;;;;;3.37;1.93;;;;;;;;;;6340028;28;20562;-87
2023/01/11 13:55:26;;;;;;;2.03;1.80;;;;;;;;;;6323784;28;20573;-86
2023/01/11 13:58:35;;;;;;;2.50;1.97;;;;;;;;;;6339714;28;20300;-85
2023/01/11 14:01:46;;;;;;;2.30;1.40;;;;;;;;;;6339893;28;20271;-85
2023/01/11 14:04:55;;;;;;;1.83;1.63;;;;;;;;;;6321422;28;20483;-85
2023/01/11 14:08:22;;;;;;;3.30;1.80;;;;;;;;;;6321304;28;20317;-85
2023/01/11 14:11:38;;;;;;;2.90;2.00;;;;;;;;;;6322951;28;20270;-86
2023/01/11 14:15:16;;;;;;;2.93;1.80;;;;;;;;;;6296782;28;20304;-85
2023/01/11 14:18:35;;;;;;;3.70;2.17;;;;;;;;;;6299791;28;20297;-85
2023/01/11 14:21:55;;;;;;;1.73;1.63;;;;;;;;;;6315045;28;20277;-85
2023/01/11 14:25:02;;;;;;;2.30;1.53;;;;;;;;;;6313694;28;20384;-85
2023/01/11 14:28:24;;;;;;;2.57;1.70;;;;;;;;;;6296059;28;20300;-85
2023/01/11 14:31:41;;;;;;;1.37;1.37;;;;;;;;;;6296846;28;20268;-85
2023/01/11 14:35:11;;;;;;;2.00;1.70;;;;;;;;;;6313195;28;20293;-85
2023/01/11 14:38:41;;;;;;;3.27;1.60;;;;;;;;;;6312716;28;20292;-85
2023/01/11 14:42:21;;;;;;;2.63;1.50;;;;;;;;;;6268243;28;20278;-85
2023/01/11 14:46:00;;;;;;;1.50;1.40;;;;;;;;;;6313742;28;20293;-86
2023/01/11 14:49:15;;;;;;;5.10;1.83;;;;;;;;;;6277967;28;20590;-85
2023/01/11 14:52:27;;;;;;;1.77;1.67;;;;;;;;;;6313952;28;20434;-85
2023/01/11 14:55:45;;;;;;;1.57;1.43;;;;;;;;;;6294739;28;20292;-85
2023/01/11 14:59:04;;;;;;;2.50;1.70;;;;;;;;;;6304427;28;20618;-86
2023/01/11 15:02:28;;;;;;;4.37;1.80;;;;;;;;;;6296190;28;20277;-86
2023/01/11 15:05:37;;;;;;;6.27;2.00;;;;;;;;;;6312768;28;20293;-84
2023/01/11 15:08:46;;;;;;;3.10;2.17;;;;;;;;;;6330703;28;20296;-87
2023/01/11 15:11:53;;;;;;;2.07;1.87;;;;;;;;;;6319804;28;20277;-84
2023/01/11 15:15:04;;;;;;;1.60;1.50;;;;;;;;;;6303364;28;20301;-86
2023/01/11 15:18:17;;;;;;;3.40;1.50;;;;;;;;;;6337490;28;20297;-84
2023/01/11 15:21:27;;;;;;;3.30;1.60;;;;;;;;;;6338173;28;20268;-86
2023/01/11 15:24:36;;;;;;;4.37;1.63;;;;;;;;;;6311957;28;20294;-84
2023/01/11 15:27:41;;;;;;;1.47;1.30;;;;;;;;;;6338384;28;20456;-90
2023/01/11 15:30:52;;;;;;;4.00;1.30;;;;;;;;;;6336433;28;20288;-83
2023/01/11 15:34:05;;;;;;;3.20;1.60;;;;;;;;;;6303062;28;20293;-86
2023/01/11 15:37:45;;;;;;;1.43;1.33;;;;;;;;;;6303691;28;20571;-86
2023/01/11 15:40:52;;;;;;;1.40;1.30;;;;;;;;;;6337917;28;20275;-86
2023/01/11 15:44:27;;;;;;;2.07;1.60;;;;;;;;;;6351297;28;20268;-84
2023/01/11 15:47:49;;;;;;;2.33;1.47;;;;;;;;;;6331020;28;20252;-87
2023/01/11 15:51:17;;;;;;;1.73;1.63;;;;;;;;;;6321621;28;20299;-86
2023/01/11 15:54:50;;;;;;;2.50;1.53;;;;;;;;;;6341660;28;20308;-85
2023/01/11 15:58:17;;;;;;;4.67;1.70;;;;;;;;;;6363135;28;20272;-87
2023/01/11 16:01:27;;;;;;;2.20;1.63;;;;;;;;;;6344542;28;20276;-85
2023/01/11 16:04:35;;;;;;;3.00;1.60;;;;;;;;;;6343385;28;20292;-87
2023/01/11 16:07:46;;;;;;;3.23;1.60;;;;;;;;;;6343498;28;20301;-86
2023/01/11 16:11:04;;;;;;;1.40;1.40;;;;;;;;;;6342874;28;20488;-85
2023/01/11 16:14:31;;;;;;;1.63;1.50;;;;;;;;;;6361806;28;20559;-86
2023/01/11 16:17:40;;;;;;;1.60;1.50;;;;;;;;;;6361981;28;20280;-85
2023/01/11 16:20:57;;;;;;;1.73;1.60;;;;;;;;;;6343639;28;20620;-87
2023/01/11 16:24:06;;;;;;;1.53;1.53;;;;;;;;;;6339361;28;20473;-86
2023/01/11 16:27:18;;;;;;;2.47;1.73;;;;;;;;;;6344615;28;20273;-86
2023/01/11 16:30:25;;;;;;;3.57;2.10;;;;;;;;;;6361842;28;20298;-87
2023/01/11 16:33:33;;;;;;;2.40;1.90;;;;;;;;;;6327284;28;20288;-85
2023/01/11 16:36:40;;;;;;;2.70;1.77;;;;;;;;;;6343719;28;20450;-86
2023/01/11 16:39:48;;;;;;;2.33;1.63;;;;;;;;;;6343146;28;20303;-86
2023/01/11 16:42:57;;;;;;;3.73;1.93;;;;;;;;;;6343034;28;20268;-86
2023/01/11 16:46:02;;;;;;;3.97;2.00;;;;;;;;;;6344181;28;20290;-85
2023/01/11 16:49:10;;;;;;;2.77;2.60;;;;;;;;;;6343501;28;20612;-87
2023/01/11 16:52:41;;;;;;;3.43;2.27;;;;;;;;;;6362482;28;20269;-85
2023/01/11 16:55:54;;;;;;;7.93;2.07;;;;;;;;;;6342382;28;20267;-86
2023/01/11 16:59:17;;;;;;;7.17;2.23;;;;;;;;;;6360963;28;20305;-85
2023/01/11 17:02:28;;;;;;;3.83;2.20;;;;;;;;;;6343536;28;20269;-87
2023/01/11 17:05:34;;;;;;;1.83;1.73;;;;;;;;;;6309959;28;20292;-88
2023/01/11 17:08:41;;;;;;;2.60;2.40;;;;;;;;;;6363071;28;20289;-86
2023/01/11 17:11:51;;;;;;;4.23;2.30;;;;;;;;;;6343804;28;20258;-86
2023/01/11 17:15:07;;;;;;;3.33;2.47;;;;;;;;;;6323896;28;20376;-86
2023/01/11 17:18:12;;;;;;;5.97;2.20;;;;;;;;;;6339248;28;20304;-87
2023/01/11 17:21:20;;;;;;;3.10;2.07;;;;;;;;;;6340767;28;20317;-87
2023/01/11 17:24:25;;;;;;;4.50;2.40;;;;;;;;;;6320180;28;20357;-88
2023/01/11 17:27:34;;;;;;;2.63;2.00;;;;;;;;;;6323104;28;20273;-87
2023/01/11 17:30:40;;;;;;;5.40;2.13;;;;;;;;;;6302870;28;20432;-84
2023/01/11 17:33:46;;;;;;;1.77;1.67;;;;;;;;;;6317990;28;20471;-85
2023/01/11 17:36:52;;;;;;;3.60;2.20;;;;;;;;;;6336032;28;20452;-85
2023/01/11 17:39:59;;;;;;;7.47;2.10;;;;;;;;;;6337761;28;20293;-84
2023/01/11 17:46:32;;;;;;;3.87;1.90;;;;;;;;;;6319925;28;20284;-85
2023/01/11 17:49:37;;;;;;;2.50;1.90;;;;;;;;;;6336928;28;20301;-83
2023/01/11 17:52:43;;;;;;;4.00;1.83;;;;;;;;;;6317926;28;20292;-84
2023/01/11 17:56:00;;;;;;;3.20;2.00;;;;;;;;;;6336459;28;20278;-84
2023/01/11 17:59:20;;;;;;;5.03;1.80;;;;;;;;;;6301557;28;20301;-87
2023/01/11 18:02:25;;;;;;;1.80;1.70;;;;;;;;;;6318926;28;20269;-85
2023/01/11 18:05:30;;;;;;;7.77;1.77;;;;;;;;;;6339107;28;20357;-86
2023/01/11 18:08:36;;;;;;;3.30;1.73;;;;;;;;;;6327453;28;20308;-88
2023/01/11 18:11:42;;;;;;;5.60;1.60;;;;;;;;;;6372777;28;20236;-89
2023/01/11 18:14:52;;;;;;;3.93;1.90;;;;;;;;;;6338667;28;20292;-88
2023/01/11 18:17:58;;;;;;;1.73;1.67;;;;;;;;;;6354396;28;20224;-86
2023/01/11 18:21:02;;;;;;;3.63;1.97;;;;;;;;;;6353618;28;20375;-84
2023/01/11 18:24:24;;;;;;;5.53;1.70;;;;;;;;;;6376418;28;20252;-85
2023/01/11 18:27:31;;;;;;;5.07;1.97;;;;;;;;;;6371718;28;20244;-86
2023/01/11 18:30:39;;;;;;;7.83;1.97;;;;;;;;;;6356082;28;20305;-87
2023/01/11 18:33:44;;;;;;;3.83;2.07;;;;;;;;;;6374063;28;20609;-86
2023/01/11 18:36:49;;;;;;;3.80;1.70;;;;;;;;;;6376298;28;20231;-87
2023/01/11 18:39:55;;;;;;;2.30;1.67;;;;;;;;;;6360462;28;20288;-92
2023/01/11 18:43:02;;;;;;;6.83;1.87;;;;;;;;;;6359752;28;20463;-91
2023/01/11 18:46:12;;;;;;;8.57;2.47;;;;;;;;;;6333693;28;20272;-88
2023/01/11 18:49:19;;;;;;;3.80;2.13;;;;;;;;;;6366513;28;20296;-86
2023/01/11 18:52:26;;;;;;;5.60;1.97;;;;;;;;;;6370241;28;20260;-86
2023/01/11 18:55:31;;;;;;;7.17;2.53;;;;;;;;;;6372738;28;20315;-85
2023/01/11 18:58:37;;;;;;;10.77;3.00;;;;;;;;;;6352721;28;20288;-84
2023/01/11 19:01:43;;;;;;;11.60;2.10;;;;;;;;;;6349332;28;20296;-82
2023/01/11 19:05:08;;;;;;;7.17;2.10;;;;;;;;;;6365798;28;20297;-82
2023/01/11 19:08:14;;;;;;;4.87;1.70;;;;;;;;;;6367045;28;20292;-86
2023/01/11 19:11:24;;;;;;;6.07;2.30;;;;;;;;;;6331831;28;20266;-87
2023/01/11 19:14:30;;;;;;;6.33;2.07;;;;;;;;;;6340726;28;20480;-87
2023/01/11 19:17:40;;;;;;;6.10;2.27;;;;;;;;;;6334488;28;20355;-88
2023/01/11 19:20:46;;;;;;;3.03;2.20;;;;;;;;;;6307547;28;20426;-88
2023/01/11 19:23:51;;;;;;;8.87;2.20;;;;;;;;;;6307128;28;20296;-87